createdAt,value
2017-07-29T00:01:57.235Z,8.67
2017-07-29T00:04:24.859Z,9.03
2017-07-29T00:06:52.367Z,8.80
2017-07-29T00:09:19.874Z,7.90
2017-07-29T00:11:47.676Z,10.00
2017-07-29T00:14:15.194Z,8.60
2017-07-29T00:16:42.898Z,9.73
2017-07-29T00:19:10.450Z,9.53
2017-07-29T00:21:37.956Z,8.67
2017-07-29T00:24:05.474Z,8.57
2017-07-29T00:26:33.167Z,8.70
2017-07-29T00:29:00.720Z,10.03
2017-07-29T00:31:28.222Z,9.53
2017-07-29T00:33:55.755Z,10.20
2017-07-29T00:36:23.259Z,8.17
2017-07-29T00:38:50.869Z,10.70
2017-07-29T00:41:18.423Z,11.60
2017-07-29T00:43:45.939Z,10.50
2017-07-29T00:46:13.458Z,10.00
2017-07-29T00:48:41.326Z,9.40
2017-07-29T00:51:08.834Z,11.37
2017-07-29T00:53:36.345Z,12.90
2017-07-29T00:56:03.911Z,11.07
2017-07-29T00:58:31.423Z,11.20
2017-07-29T01:00:58.950Z,13.40
2017-07-29T01:03:26.827Z,12.93
2017-07-29T01:05:54.342Z,14.33
2017-07-29T01:08:21.844Z,13.07
2017-07-29T01:10:49.419Z,11.93
2017-07-29T01:13:16.925Z,10.77
2017-07-29T01:15:44.426Z,11.73
2017-07-29T01:18:11.974Z,12.03
2017-07-29T01:20:39.491Z,12.47
2017-07-29T01:23:07.047Z,9.83
2017-07-29T01:25:34.894Z,10.80
2017-07-29T01:28:02.574Z,8.80
2017-07-29T01:30:30.095Z,10.37
2017-07-29T01:32:57.695Z,12.63
2017-07-29T01:35:25.416Z,15.33
2017-07-29T02:32:36.928Z,11.67
2017-07-29T02:58:32.807Z,10.00
2017-07-29T03:01:00.410Z,10.00
2017-07-29T03:03:28.046Z,10.00
2017-07-29T03:05:56.998Z,10.87
2017-07-29T03:08:24.541Z,9.97
2017-07-29T03:10:52.135Z,11.43
2017-07-29T03:13:20.089Z,10.30
2017-07-29T03:15:47.677Z,13.23
2017-07-29T03:18:15.234Z,11.30
2017-07-29T03:20:42.797Z,11.63
2017-07-29T03:23:10.355Z,10.90
2017-07-29T03:25:37.923Z,11.17
2017-07-29T03:28:05.317Z,12.10
2017-07-29T03:30:32.874Z,10.47
2017-07-29T03:33:00.446Z,11.40
2017-07-29T03:35:28.264Z,11.40
2017-07-29T03:37:55.840Z,12.07
2017-07-29T03:40:23.420Z,11.10
2017-07-29T03:42:51.195Z,13.37
2017-07-29T03:45:18.740Z,12.70
2017-07-29T03:47:46.309Z,11.60
2017-07-29T03:50:14.171Z,14.17
2017-07-29T03:52:41.754Z,11.57
2017-07-29T03:55:09.292Z,11.20
2017-07-29T03:57:37.121Z,13.07
2017-07-29T04:00:04.677Z,11.33
2017-07-29T04:02:32.232Z,12.50
2017-07-29T04:04:59.820Z,14.83
2017-07-29T04:07:27.368Z,9.77
2017-07-29T04:09:55.116Z,11.37
2017-07-29T04:12:22.797Z,12.20
2017-07-29T04:14:50.359Z,12.23
2017-07-29T04:17:18.167Z,10.67
2017-07-29T04:19:45.784Z,10.60
2017-07-29T04:22:13.328Z,9.67
2017-07-29T04:24:41.163Z,10.57
2017-07-29T04:27:08.711Z,10.83
2017-07-29T04:29:36.271Z,10.20
2017-07-29T04:32:04.103Z,11.47
2017-07-29T04:34:31.648Z,12.63
2017-07-29T04:36:59.198Z,9.80
2017-07-29T04:39:26.825Z,10.27
2017-07-29T04:41:54.475Z,10.90
2017-07-29T04:44:22.238Z,9.33
2017-07-29T04:46:49.900Z,8.57
2017-07-29T04:49:17.452Z,9.47
2017-07-29T04:51:45.026Z,8.80
2017-07-29T04:54:12.824Z,8.77
2017-07-29T04:56:40.406Z,8.43
2017-07-29T04:59:07.972Z,7.93
2017-07-29T05:01:37.744Z,7.63
2017-07-29T05:04:05.297Z,8.80
2017-07-29T05:06:32.839Z,7.17
2017-07-29T05:09:00.471Z,7.50
2017-07-29T05:11:28.042Z,7.60
2017-07-29T05:13:55.599Z,6.90
2017-07-29T05:16:27.281Z,7.10
2017-07-29T05:18:54.833Z,7.90
2017-07-29T05:21:22.456Z,7.03
2017-07-29T05:23:50.316Z,8.03
2017-07-29T05:26:17.964Z,6.97
2017-07-29T05:28:45.546Z,7.77
2017-07-29T05:31:13.489Z,7.60
2017-07-29T05:33:41.078Z,7.70
2017-07-29T05:36:08.638Z,6.93
2017-07-29T05:38:36.764Z,7.13
2017-07-29T05:41:04.636Z,6.80
2017-07-29T05:43:32.232Z,7.10
2017-07-29T05:45:59.821Z,7.00
2017-07-29T05:48:27.400Z,7.23
2017-07-29T05:50:55.058Z,6.93
2017-07-29T05:53:22.628Z,7.40
2017-07-29T05:55:50.330Z,6.90
2017-07-29T05:58:17.861Z,7.80
2017-07-29T06:00:46.088Z,7.60
2017-07-29T06:03:13.659Z,8.37
2017-07-29T06:05:41.270Z,6.50
2017-07-29T06:08:09.207Z,5.93
2017-07-29T06:10:36.841Z,7.33
2017-07-29T06:13:04.384Z,6.87
2017-07-29T06:15:32.442Z,6.10
2017-07-29T06:18:00.065Z,5.00
2017-07-29T06:20:27.783Z,6.43
2017-07-29T06:22:55.377Z,5.90
2017-07-29T06:25:23.026Z,6.23
2017-07-29T06:27:50.936Z,6.07
2017-07-29T06:30:18.520Z,4.93
2017-07-29T06:32:46.129Z,5.77
2017-07-29T06:35:13.812Z,5.30
2017-07-29T06:37:41.380Z,6.20
2017-07-29T06:40:09.152Z,6.27
2017-07-29T06:42:36.958Z,5.90
2017-07-29T06:45:04.573Z,5.40
2017-07-29T06:47:32.271Z,4.83
2017-07-29T06:49:59.803Z,5.63
2017-07-29T06:52:27.352Z,5.10
2017-07-29T06:54:56.035Z,8.27
2017-07-29T06:57:23.611Z,4.93
2017-07-29T06:59:51.179Z,5.23
2017-07-29T07:02:19.234Z,5.33
2017-07-29T07:04:46.821Z,5.47
2017-07-29T07:07:14.376Z,5.30
2017-07-29T07:09:42.459Z,5.83
2017-07-29T07:12:10.150Z,4.83
2017-07-29T07:14:37.841Z,4.80
2017-07-29T07:17:05.935Z,5.53
2017-07-29T07:19:33.507Z,4.30
2017-07-29T07:22:02.241Z,5.20
2017-07-29T07:24:36.810Z,5.20
2017-07-29T07:27:04.553Z,5.00
2017-07-29T07:29:32.168Z,4.63
2017-07-29T07:32:00.190Z,4.37
2017-07-29T07:34:27.831Z,4.43
2017-07-29T07:37:00.989Z,4.53
2017-07-29T07:39:28.986Z,4.60
2017-07-29T07:41:56.573Z,4.00
2017-07-29T07:44:25.554Z,4.10
2017-07-29T07:46:53.236Z,4.07
2017-07-29T07:52:30.474Z,3.37
2017-07-29T07:54:58.073Z,4.40
2017-07-29T07:57:25.645Z,3.60
2017-07-29T07:59:53.235Z,3.93
2017-07-29T08:02:21.197Z,4.43
2017-07-29T08:04:48.828Z,4.40
2017-07-29T08:07:16.439Z,3.57
2017-07-29T08:09:44.295Z,3.53
2017-07-29T08:12:12.110Z,3.20
2017-07-29T08:14:39.755Z,2.97
2017-07-29T08:17:07.767Z,3.10
2017-07-29T08:19:35.439Z,3.60
2017-07-29T08:22:03.072Z,3.13
2017-07-29T08:24:30.760Z,2.80
2017-07-29T08:26:58.330Z,4.90
2017-07-29T08:29:25.900Z,3.40
2017-07-29T08:31:53.942Z,3.87
2017-07-29T08:34:27.729Z,3.50
2017-07-29T08:36:55.462Z,4.07
2017-07-29T08:39:23.046Z,3.93
2017-07-29T08:41:50.657Z,2.80
2017-07-29T08:44:18.297Z,3.47
2017-07-29T08:46:45.944Z,2.90
2017-07-29T08:49:13.549Z,3.47
2017-07-29T08:51:45.215Z,3.20
2017-07-29T08:54:14.082Z,3.70
2017-07-29T08:56:41.660Z,3.40
2017-07-29T08:59:09.251Z,2.87
2017-07-29T09:01:36.808Z,3.33
2017-07-29T09:04:04.357Z,3.50
2017-07-29T09:06:32.026Z,3.57
2017-07-29T09:08:59.564Z,3.47
2017-07-29T09:11:27.261Z,3.93
2017-07-29T09:13:54.919Z,3.37
2017-07-29T09:16:22.483Z,3.70
2017-07-29T09:18:50.077Z,3.30
2017-07-29T09:21:18.339Z,3.90
2017-07-29T09:23:45.974Z,3.33
2017-07-29T09:26:13.561Z,3.67
2017-07-29T09:28:41.139Z,4.20
2017-07-29T09:31:08.685Z,3.87
2017-07-29T09:33:36.220Z,3.50
2017-07-29T09:36:04.062Z,4.00
2017-07-29T09:38:31.609Z,3.47
2017-07-29T09:40:59.164Z,3.80
2017-07-29T09:43:27.685Z,3.40
2017-07-29T09:46:03.420Z,3.87
2017-07-29T09:48:31.164Z,4.10
2017-07-29T09:51:02.029Z,4.37
2017-07-29T09:53:29.584Z,3.80
2017-07-29T09:55:57.402Z,3.90
2017-07-29T09:58:25.005Z,4.00
2017-07-29T10:00:52.541Z,4.47
2017-07-29T10:03:20.241Z,4.17
2017-07-29T10:05:47.830Z,3.90
2017-07-29T10:08:15.461Z,4.10
2017-07-29T10:10:43.404Z,4.77
2017-07-29T10:13:10.965Z,4.40
2017-07-29T10:15:38.636Z,4.10
2017-07-29T10:18:06.613Z,4.47
2017-07-29T10:20:34.258Z,4.03
2017-07-29T10:23:01.842Z,5.47
2017-07-29T10:25:29.457Z,4.70
2017-07-29T10:27:57.049Z,4.30
2017-07-29T10:30:24.716Z,4.50
2017-07-29T10:32:52.461Z,4.33
2017-07-29T10:35:20.001Z,4.00
2017-07-29T10:37:47.540Z,3.97
2017-07-29T10:40:15.270Z,4.30
2017-07-29T10:42:42.870Z,4.10
2017-07-29T10:45:10.417Z,4.00
2017-07-29T10:47:38.027Z,3.70
2017-07-29T10:50:05.594Z,4.33
2017-07-29T10:52:33.273Z,3.50
2017-07-29T10:55:01.220Z,4.10
2017-07-29T10:57:28.783Z,3.67
2017-07-29T10:59:56.338Z,4.10
2017-07-29T11:02:24.899Z,4.37
2017-07-29T11:04:52.513Z,4.23
2017-07-29T11:07:20.168Z,3.70
2017-07-29T11:09:47.784Z,3.87
2017-07-29T11:12:15.357Z,4.60
2017-07-29T11:14:43.117Z,4.20
2017-07-29T11:17:11.126Z,4.10
2017-07-29T11:19:38.726Z,3.77
2017-07-29T11:22:06.501Z,3.67
2017-07-29T11:24:34.464Z,3.53
2017-07-29T11:27:02.037Z,4.47
2017-07-29T11:29:29.694Z,3.77
2017-07-29T11:31:57.396Z,4.27
2017-07-29T11:34:25.072Z,3.97
2017-07-29T11:36:52.734Z,4.10
2017-07-29T11:39:20.361Z,4.23
2017-07-29T11:41:48.071Z,3.67
2017-07-29T11:44:15.737Z,3.73
2017-07-29T11:46:43.342Z,3.83
2017-07-29T11:49:10.900Z,3.40
2017-07-29T11:51:38.494Z,4.07
2017-07-29T11:54:06.461Z,3.50
2017-07-29T11:56:34.112Z,3.50
2017-07-29T11:59:01.720Z,4.17
2017-07-29T12:01:30.869Z,3.70
2017-07-29T12:03:58.476Z,5.07
2017-07-29T12:06:26.051Z,4.07
2017-07-29T12:08:54.598Z,3.57
2017-07-29T12:11:25.280Z,3.77
2017-07-29T12:13:52.911Z,3.87
2017-07-29T12:16:20.857Z,4.00
2017-07-29T12:18:48.645Z,3.63
2017-07-29T12:21:16.248Z,3.57
2017-07-29T12:23:57.541Z,3.47
2017-07-29T12:26:25.129Z,4.17
2017-07-29T12:37:30.714Z,2.93
2017-07-29T12:39:58.376Z,5.13
2017-07-29T12:42:25.988Z,4.23
2017-07-29T12:44:53.621Z,3.90
2017-07-29T12:47:21.161Z,3.60
2017-07-29T12:52:27.061Z,3.40
2017-07-29T12:54:54.614Z,4.20
2017-07-29T12:57:22.217Z,4.10
2017-07-29T12:59:51.248Z,4.37
2017-07-29T13:02:19.011Z,3.87
2017-07-29T13:04:46.701Z,3.67
2017-07-29T13:07:15.225Z,4.60
2017-07-29T13:09:47.165Z,4.70
2017-07-29T13:12:15.465Z,3.60
2017-07-29T13:14:43.085Z,3.87
2017-07-29T13:17:10.722Z,3.47
2017-07-29T13:19:38.600Z,4.10
2017-07-29T13:22:06.210Z,6.50
2017-07-29T13:24:33.809Z,3.67
2017-07-29T13:27:01.473Z,4.60
2017-07-29T13:29:29.071Z,3.83
2017-07-29T14:20:50.596Z,3.73
2017-07-29T14:23:18.256Z,3.63
2017-07-29T14:25:55.775Z,7.00
2017-07-29T14:31:21.533Z,3.90
2017-07-29T14:36:42.451Z,4.83
2017-07-29T14:39:10.040Z,3.40
2017-07-29T14:41:37.844Z,3.00
2017-07-29T14:44:05.832Z,5.70
2017-07-29T14:46:56.670Z,4.47
2017-07-29T15:00:56.116Z,7.50
2017-07-29T15:09:54.944Z,2.80
2017-07-29T15:12:22.718Z,4.03
2017-07-29T15:14:56.834Z,5.23
2017-07-29T15:17:24.581Z,3.50
2017-07-29T15:19:52.175Z,3.53
2017-07-29T15:22:20.129Z,3.50
2017-07-29T15:28:29.433Z,3.67
2017-07-29T15:30:57.081Z,3.50
2017-07-29T15:33:24.679Z,3.87
2017-07-29T15:35:52.439Z,3.40
2017-07-29T15:38:28.961Z,5.90
2017-07-29T15:40:56.602Z,3.03
2017-07-29T15:43:24.346Z,3.40
2017-07-29T15:45:52.268Z,3.07
2017-07-29T15:48:19.888Z,2.90
2017-07-29T15:53:44.794Z,3.17
2017-07-29T15:56:12.605Z,3.10
2017-07-29T15:58:40.260Z,2.97
2017-07-29T16:01:08.392Z,2.67
2017-07-29T16:03:36.009Z,3.30
2017-07-29T16:06:03.644Z,3.13
2017-07-29T16:08:31.348Z,3.50
2017-07-29T16:10:59.011Z,3.20
2017-07-29T16:13:26.639Z,3.23
2017-07-29T16:15:54.408Z,3.07
2017-07-29T16:18:22.250Z,2.87
2017-07-29T16:20:49.969Z,3.10
2017-07-29T16:23:18.227Z,2.53
2017-07-29T16:25:45.905Z,3.10
2017-07-29T16:28:13.689Z,3.30
2017-07-29T16:30:42.093Z,2.70
2017-07-29T16:33:09.733Z,2.77
2017-07-29T16:35:37.490Z,2.77
2017-07-29T16:38:05.551Z,3.00
2017-07-29T16:40:33.240Z,2.90
2017-07-29T16:43:01.098Z,2.93
2017-07-29T16:45:28.987Z,3.43
2017-07-29T16:47:56.677Z,2.73
2017-07-29T16:50:24.317Z,3.00
2017-07-29T16:52:52.384Z,3.30
2017-07-29T16:55:20.014Z,3.10
2017-07-29T16:57:47.706Z,3.00
2017-07-29T17:00:15.513Z,3.10
2017-07-29T17:02:43.272Z,2.80
2017-07-29T17:05:10.912Z,2.90
2017-07-29T17:07:39.094Z,3.27
2017-07-29T17:10:06.964Z,2.90
2017-07-29T17:12:34.592Z,3.13
2017-07-29T17:15:02.408Z,3.20
2017-07-29T17:17:30.048Z,3.10
2017-07-29T17:19:57.855Z,3.27
2017-07-29T17:22:25.468Z,3.50
2017-07-29T17:24:53.219Z,3.90
2017-07-29T17:27:20.917Z,2.83
2017-07-29T17:29:48.821Z,3.80
2017-07-29T17:32:16.513Z,3.90
2017-07-29T17:34:44.114Z,4.13
2017-07-29T17:37:11.988Z,4.20
2017-07-29T17:39:39.828Z,3.70
2017-07-29T17:42:07.645Z,5.20
2017-07-29T17:44:35.330Z,4.57
2017-07-29T17:47:02.916Z,4.13
2017-07-29T17:49:30.518Z,3.60
2017-07-29T17:51:58.157Z,4.00
2017-07-29T17:54:25.791Z,4.13
2017-07-29T17:56:53.467Z,3.73
2017-07-29T17:59:21.393Z,3.73
2017-07-29T18:01:49.173Z,3.47
2017-07-29T18:04:16.833Z,3.70
2017-07-29T18:06:44.541Z,3.30
2017-07-29T18:09:12.344Z,4.10
2017-07-29T18:11:40.040Z,3.57
2017-07-29T18:14:07.798Z,3.63
2017-07-29T18:16:35.471Z,4.57
2017-07-29T18:19:03.162Z,4.30
2017-07-29T18:21:31.805Z,4.70
2017-07-29T18:23:59.479Z,4.40
2017-07-29T18:26:27.135Z,3.80
2017-07-29T18:28:54.850Z,5.47
2017-07-29T18:31:22.535Z,6.30
2017-07-29T18:33:50.312Z,5.63
2017-07-29T18:36:17.980Z,6.33
2017-07-29T18:38:45.669Z,5.43
2017-07-29T18:41:13.276Z,5.60
2017-07-29T18:43:40.969Z,5.20
2017-07-29T18:46:08.708Z,5.90
2017-07-29T18:48:37.918Z,6.20
2017-07-29T18:51:05.843Z,6.70
2017-07-29T18:53:33.628Z,6.80
2017-07-29T18:56:01.343Z,5.47
2017-07-29T18:58:29.504Z,6.10
2017-07-29T19:00:57.320Z,5.00
2017-07-29T19:03:24.983Z,5.63
2017-07-29T19:05:52.652Z,5.53
2017-07-29T19:08:20.271Z,5.80
2017-07-29T19:10:47.864Z,5.90
2017-07-29T19:13:15.548Z,6.13
2017-07-29T19:15:43.267Z,5.10
2017-07-29T19:18:10.873Z,4.77
2017-07-29T19:20:55.376Z,6.70
2017-07-29T19:23:23.168Z,5.97
2017-07-29T19:25:51.412Z,5.50
2017-07-29T19:30:51.926Z,7.60
2017-07-29T19:33:20.043Z,4.70
2017-07-29T19:35:47.716Z,5.00
2017-07-29T19:38:15.553Z,9.20
2017-07-29T19:40:43.658Z,8.43
2017-07-29T19:43:11.306Z,5.90
2017-07-29T19:45:38.967Z,5.30
2017-07-29T19:48:06.628Z,5.40
2017-07-29T19:50:34.381Z,7.63
2017-07-29T19:53:02.316Z,6.07
2017-07-29T19:55:30.217Z,9.37
2017-07-29T19:57:57.797Z,8.60
2017-07-29T20:00:26.882Z,5.70
2017-07-29T20:02:55.011Z,5.87
2017-07-29T20:05:22.744Z,5.33
2017-07-29T20:07:50.339Z,5.17
2017-07-29T20:10:18.342Z,5.50
2017-07-29T20:12:45.991Z,5.27
2017-07-29T20:15:13.613Z,5.33
2017-07-29T20:17:41.349Z,5.60
2017-07-29T20:20:09.069Z,5.90
2017-07-29T20:22:37.500Z,6.60
2017-07-29T20:25:05.814Z,7.50
2017-07-29T20:27:33.793Z,6.77
2017-07-29T20:30:01.521Z,6.60
2017-07-29T20:32:29.112Z,6.43
2017-07-29T20:34:56.861Z,6.10
2017-07-29T20:37:24.525Z,7.40
2017-07-29T20:42:50.782Z,7.13
2017-07-29T20:45:18.552Z,6.57
2017-07-29T20:47:46.118Z,7.53
2017-07-29T20:50:14.188Z,7.20
2017-07-29T20:52:41.868Z,8.03
2017-07-29T20:55:09.802Z,8.90
2017-07-29T20:57:37.905Z,9.90
2017-07-29T21:00:06.228Z,9.33
2017-07-29T21:02:33.874Z,6.90
2017-07-29T21:05:01.485Z,7.90
2017-07-29T21:07:29.514Z,8.80
2017-07-29T21:09:57.321Z,8.17
2017-07-29T21:12:24.881Z,8.90
2017-07-29T21:14:52.552Z,8.67
2017-07-29T21:17:20.112Z,9.00
2017-07-29T21:19:48.098Z,11.70
2017-07-29T21:22:16.097Z,8.43
2017-07-29T21:24:43.710Z,8.63
2017-07-29T21:27:11.446Z,8.07
2017-07-29T21:29:39.156Z,7.47
2017-07-29T21:32:06.759Z,7.83
2017-07-29T21:34:34.390Z,7.63
2017-07-29T21:37:01.987Z,8.30
2017-07-29T21:39:29.932Z,8.77
2017-07-29T21:41:57.551Z,10.63
2017-07-29T21:44:25.338Z,8.63
2017-07-29T21:46:53.179Z,8.63
2017-07-29T21:49:20.740Z,7.37
2017-07-29T21:51:48.338Z,8.40
2017-07-29T21:54:15.922Z,9.03
2017-07-29T21:56:43.487Z,8.90
2017-07-29T21:59:11.096Z,10.50
2017-07-29T22:01:38.726Z,13.10
2017-07-29T22:04:06.391Z,12.50
2017-07-29T22:06:36.122Z,14.43
2017-07-29T22:09:03.841Z,13.90
2017-07-29T22:11:31.453Z,13.63
2017-07-29T22:13:59.309Z,11.90
2017-07-29T22:16:27.185Z,12.17
2017-07-29T22:18:55.089Z,14.13
2017-07-29T22:21:22.757Z,13.23
2017-07-29T22:23:50.416Z,12.47
2017-07-29T22:26:17.989Z,10.70
2017-07-29T22:28:45.574Z,11.07
2017-07-29T22:31:13.204Z,9.43
2017-07-29T22:33:40.784Z,9.83
2017-07-29T22:36:08.393Z,9.30
2017-07-29T22:38:37.319Z,9.17
2017-07-29T22:41:04.883Z,9.23
2017-07-29T22:43:32.540Z,9.70
2017-07-29T22:46:00.525Z,8.60
2017-07-29T22:48:28.269Z,8.90
2017-07-29T22:50:55.985Z,9.07
2017-07-29T22:53:23.802Z,10.40
2017-07-29T22:55:51.505Z,10.50
2017-07-29T22:58:19.134Z,10.70
2017-07-29T23:00:47.182Z,10.57
2017-07-29T23:03:14.809Z,9.60
2017-07-29T23:05:42.468Z,9.20
2017-07-29T23:08:10.137Z,10.30
2017-07-29T23:10:37.687Z,8.97
2017-07-29T23:13:05.257Z,9.37
2017-07-29T23:15:32.908Z,8.67
2017-07-29T23:18:00.457Z,9.80
2017-07-29T23:20:28.037Z,9.40
2017-07-29T23:22:55.680Z,9.37
2017-07-29T23:25:23.241Z,8.70
2017-07-29T23:27:59.564Z,14.30
2017-07-29T23:30:28.442Z,9.10
2017-07-29T23:32:56.031Z,8.90
2017-07-29T23:35:23.857Z,9.47
2017-07-29T23:37:51.450Z,9.77
2017-07-29T23:40:19.124Z,10.57
2017-07-29T23:42:46.779Z,9.53
2017-07-29T23:45:14.345Z,8.83
2017-07-29T23:47:43.027Z,9.50
2017-07-29T23:50:10.662Z,10.93
2017-07-29T23:52:38.318Z,10.10
2017-07-29T23:55:05.924Z,8.47
2017-07-29T23:57:33.829Z,9.40
